»·PEaware :: N755ME KSNA-KHND

N755ME :: KSNA-KHND

FLIGHT INFORMATION

Flight Status: Arrived
Operator: Privately registered:
United States
More flights under this callsign
Pilot: Michael D. (15839)
Aircraft: BEECH AIRCRAFT DEBONAIR BONANZA
(BE33)
More flights by this aircraft type
Origin: KSNA John Wayne-Orange Co
United States
Destination: KHND Henderson
United States
More flights between these airports :: More routes between these airports
Route: ANAHM1 HEC V21 BLD
File this flight plan on PilotEdge
Remarks:
Altitude:
(Current/Filed)
11,000ft
Speed:
(Current/Filed)
140kts
Departed: 30-Nov-19 07:18 PM
Arrived: 30-Nov-19 08:44 PM
Distance/Time
Traveled:
193nm/1:26
Distance/Time
To Go:
Arrived

Flight Plot

Page will automatically refresh every two minutes.

Flight plan parsing failed; only flown route is shown


Map Options




Map Legend


Flown Route
Filed Route
Departure Airport
Arrival Airport
Navaid (VOR, NDB)
Fix

Horizontal Profiles

Position Reports

Time Latitude Longitude Heading Altitude Ground
Speed
30-Nov-19 19:00 33.670670 -117.868614 265 60ft 0kts
30-Nov-19 19:01 33.670670 -117.868614 265 60ft 0kts
30-Nov-19 19:02 33.670670 -117.868614 265 60ft 0kts
30-Nov-19 19:03 33.670670 -117.868614 265 60ft 0kts
30-Nov-19 19:04 33.670670 -117.868614 265 60ft 0kts
30-Nov-19 19:05 33.670670 -117.868614 265 60ft 0kts
30-Nov-19 19:06 33.670670 -117.868614 265 60ft 0kts
30-Nov-19 19:07 33.670670 -117.868614 265 60ft 0kts
30-Nov-19 19:08 33.670670 -117.868614 265 60ft 0kts
30-Nov-19 19:09 33.670670 -117.868614 265 60ft 0kts
30-Nov-19 19:10 33.670670 -117.868614 265 60ft 0kts
30-Nov-19 19:11 33.670670 -117.868614 265 60ft 0kts
30-Nov-19 19:12 33.670669 -117.868643 271 59ft 1kts
30-Nov-19 19:13 33.672175 -117.868091 23 59ft 11kts
30-Nov-19 19:14 33.675610 -117.865537 27 60ft 16kts
30-Nov-19 19:15 33.679764 -117.863190 314 60ft 0kts
30-Nov-19 19:16 33.680582 -117.863134 325 60ft 0kts
30-Nov-19 19:17 33.678575 -117.865130 205 60ft 64kts
30-Nov-19 19:18 33.655744 -117.882930 226 819ft 118kts
30-Nov-19 19:19 33.638381 -117.919440 281 1579ft 136kts
30-Nov-19 19:20 33.670081 -117.940964 338 2294ft 136kts
30-Nov-19 19:21 33.706259 -117.944550 23 2978ft 139kts
30-Nov-19 19:22 33.736219 -117.915823 34 3660ft 139kts
30-Nov-19 19:23 33.764573 -117.885076 37 4342ft 139kts
30-Nov-19 19:24 33.792388 -117.852983 37 5037ft 139kts
30-Nov-19 19:25 33.820347 -117.820830 36 5733ft 138kts
30-Nov-19 19:26 33.847997 -117.790059 34 6424ft 133kts
30-Nov-19 19:27 33.862553 -117.748213 67 7112ft 139kts
30-Nov-19 19:28 33.872975 -117.703709 64 7804ft 136kts
30-Nov-19 19:29 33.882753 -117.659881 68 8496ft 134kts
30-Nov-19 19:30 33.897612 -117.618825 69 9209ft 134kts
30-Nov-19 19:31 33.909127 -117.578062 81 9915ft 125kts
30-Nov-19 19:32 33.918724 -117.539106 81 10581ft 119kts
30-Nov-19 19:33 33.937024 -117.508111 8 11045ft 127kts
30-Nov-19 19:34 33.975014 -117.491402 7 11035ft 158kts
30-Nov-19 19:35 34.017322 -117.469638 17 11030ft 171kts
30-Nov-19 19:36 34.059976 -117.443087 17 11029ft 174kts
30-Nov-19 19:37 34.102775 -117.416452 17 11029ft 172kts
30-Nov-19 19:38 34.145756 -117.389954 17 11029ft 173kts
30-Nov-19 19:39 34.188804 -117.363294 20 11012ft 176kts
30-Nov-19 19:40 34.233243 -117.335591 23 11025ft 183kts
30-Nov-19 19:41 34.277749 -117.306638 17 10961ft 176kts
30-Nov-19 19:42 34.320892 -117.279843 17 10966ft 173kts
30-Nov-19 19:43 34.363692 -117.253204 17 10969ft 172kts
30-Nov-19 19:44 34.406276 -117.226606 18 10970ft 172kts
30-Nov-19 19:45 34.448991 -117.199884 18 10971ft 172kts
30-Nov-19 19:46 34.491810 -117.173420 16 10974ft 172kts
30-Nov-19 19:47 34.535033 -117.147661 16 10977ft 172kts
30-Nov-19 19:48 34.573356 -117.114066 68 10992ft 185kts
30-Nov-19 19:49 34.591473 -117.055233 65 10988ft 184kts
30-Nov-19 19:50 34.610647 -116.997989 64 10994ft 180kts
30-Nov-19 19:51 34.630191 -116.942316 67 11001ft 178kts
30-Nov-19 19:52 34.649331 -116.887217 67 11007ft 175kts
30-Nov-19 19:53 34.668233 -116.833248 66 10990ft 172kts
30-Nov-19 19:54 34.686771 -116.780442 66 10990ft 167kts
30-Nov-19 19:55 34.704801 -116.728936 66 10991ft 163kts
30-Nov-19 19:56 34.722320 -116.678816 66 10990ft 158kts
30-Nov-19 19:57 34.739261 -116.630318 66 10990ft 153kts
30-Nov-19 19:58 34.755756 -116.582948 66 10990ft 150kts
30-Nov-19 19:59 34.771854 -116.536675 66 10990ft 145kts
30-Nov-19 20:00 34.787275 -116.492300 67 10990ft 139kts
30-Nov-19 20:01 34.801899 -116.450297 65 10990ft 130kts
30-Nov-19 20:02 34.824881 -116.419219 42 10990ft 118kts
30-Nov-19 20:03 34.846561 -116.387535 58 10662ft 134kts
30-Nov-19 20:04 34.873215 -116.349821 43 10165ft 153kts
30-Nov-19 20:05 34.901276 -116.314647 42 10305ft 116kts
30-Nov-19 20:06 34.913782 -116.283698 113 10454ft 89kts
30-Nov-19 20:07 34.906626 -116.241409 52 10057ft 113kts
30-Nov-19 20:08 34.931182 -116.223705 15 10238ft 92kts
30-Nov-19 20:09 34.963362 -116.207568 354 9621ft 142kts
30-Nov-19 20:10 34.996436 -116.214778 37 9793ft 130kts
30-Nov-19 20:11 35.015270 -116.169688 58 9352ft 161kts
30-Nov-19 20:12 35.040886 -116.123004 50 8988ft 163kts
30-Nov-19 20:13 35.068018 -116.081105 47 8989ft 154kts
30-Nov-19 20:14 35.097224 -116.043071 43 8991ft 153kts
30-Nov-19 20:15 35.127041 -116.005103 43 8991ft 155kts
30-Nov-19 20:16 35.156935 -115.966970 43 8991ft 156kts
30-Nov-19 20:17 35.187266 -115.928229 43 8991ft 158kts
30-Nov-19 20:18 35.217787 -115.889187 43 8996ft 159kts
30-Nov-19 20:19 35.248517 -115.849851 43 9004ft 160kts
30-Nov-19 20:20 35.279464 -115.810185 43 9011ft 162kts
30-Nov-19 20:21 35.310741 -115.770043 43 9019ft 163kts
30-Nov-19 20:23 35.342151 -115.729691 42 9027ft 164kts
30-Nov-19 20:24 35.373727 -115.689070 42 9034ft 164kts
30-Nov-19 20:25 35.405479 -115.648186 42 9018ft 165kts
30-Nov-19 20:26 35.432084 -115.602103 54 9019ft 166kts
30-Nov-19 20:27 35.456827 -115.553983 54 9037ft 166kts
30-Nov-19 20:28 35.481532 -115.505937 54 9037ft 166kts
30-Nov-19 20:29 35.506333 -115.457692 54 9037ft 166kts
30-Nov-19 20:30 35.538491 -115.419129 31 9037ft 163kts
30-Nov-19 20:31 35.575634 -115.387033 31 9037ft 163kts
30-Nov-19 20:32 35.612916 -115.354841 31 9037ft 163kts
30-Nov-19 20:33 35.650072 -115.322738 31 9035ft 163kts
30-Nov-19 20:34 35.687567 -115.290305 32 8772ft 173kts
30-Nov-19 20:35 35.727865 -115.255882 31 7789ft 178kts
30-Nov-19 20:36 35.767937 -115.222412 31 6779ft 171kts
30-Nov-19 20:37 35.808937 -115.197915 18 5942ft 163kts
30-Nov-19 20:38 35.846372 -115.180606 23 6068ft 115kts
30-Nov-19 20:39 35.875782 -115.162460 30 5480ft 112kts
30-Nov-19 20:40 35.898726 -115.150075 17 4491ft 78kts
30-Nov-19 20:41 35.919924 -115.141068 17 3832ft 77kts
30-Nov-19 20:42 35.941780 -115.136195 3 3143ft 85kts
30-Nov-19 20:42 35.961158 -115.135722 0 2557ft 79kts
30-Nov-19 20:44 35.974417 -115.136150 270 2425ft 11kts
30-Nov-19 20:45 35.974430 -115.137418 269 2422ft 2kts
30-Nov-19 20:45 35.974430 -115.137637 269 2422ft 0kts
30-Nov-19 20:46 35.974430 -115.137637 269 2422ft 0kts

Navigation Log

Ident Type
Flight plan parsing failed, navigation log unavailable